createdAt,value
2018-06-24T00:02:03.488Z,14.70
2018-06-24T00:04:31.089Z,14.60
2018-06-24T00:06:58.609Z,14.50
2018-06-24T00:09:27.447Z,14.50
2018-06-24T00:11:56.088Z,14.50
2018-06-24T00:14:24.323Z,14.40
2018-06-24T00:16:51.998Z,14.30
2018-06-24T00:19:20.158Z,14.10
2018-06-24T00:21:48.334Z,13.90
2018-06-24T00:24:16.512Z,14.10
2018-06-24T00:26:44.688Z,14.10
2018-06-24T00:29:13.327Z,14.00
2018-06-24T00:31:42.021Z,14.00
2018-06-24T00:34:09.743Z,13.90
2018-06-24T00:36:37.237Z,14.00
2018-06-24T00:39:08.595Z,14.00
2018-06-24T00:41:36.892Z,13.90
2018-06-24T00:44:04.952Z,13.70
2018-06-24T00:46:33.132Z,13.70
2018-06-24T00:49:01.891Z,13.80
2018-06-24T00:51:29.382Z,13.80
2018-06-24T00:56:25.234Z,13.90
2018-06-24T00:58:53.388Z,13.90
2018-06-24T01:01:21.593Z,13.80
2018-06-24T01:03:50.351Z,13.70
2018-06-24T01:06:18.545Z,13.70
2018-06-24T01:08:46.109Z,13.60
2018-06-24T01:11:14.223Z,13.60
2018-06-24T01:13:42.315Z,13.60
2018-06-24T01:16:10.768Z,13.70
2018-06-24T01:18:38.853Z,13.70
2018-06-24T01:21:07.211Z,13.80
2018-06-24T01:23:35.435Z,13.80
2018-06-24T01:26:03.823Z,13.80
2018-06-24T01:30:59.833Z,13.70
2018-06-24T01:33:28.066Z,13.60
2018-06-24T01:35:55.718Z,13.50
2018-06-24T01:38:23.225Z,13.60
2018-06-24T01:40:50.729Z,13.60
2018-06-24T01:43:19.221Z,13.60
2018-06-24T01:45:47.838Z,13.60
2018-06-24T01:48:16.319Z,13.60
2018-06-24T01:50:44.625Z,13.60
2018-06-24T01:53:13.317Z,13.60
2018-06-24T01:55:41.582Z,13.70
2018-06-24T01:58:10.100Z,13.70
2018-06-24T02:00:38.438Z,13.70
2018-06-24T02:03:06.613Z,13.70
2018-06-24T02:05:34.787Z,13.70
2018-06-24T02:08:02.965Z,13.70
2018-06-24T02:10:31.141Z,13.70
2018-06-24T02:12:59.318Z,13.70
2018-06-24T02:15:27.495Z,13.70
2018-06-24T02:17:55.672Z,13.70
2018-06-24T02:20:23.344Z,13.70
2018-06-24T02:22:51.749Z,13.70
2018-06-24T02:25:20.205Z,13.70
2018-06-24T02:27:48.689Z,13.50
2018-06-24T02:30:16.870Z,13.50
2018-06-24T02:32:44.922Z,13.50
2018-06-24T02:35:13.422Z,13.40
2018-06-24T02:37:40.932Z,13.40
2018-06-24T02:40:09.120Z,13.50
2018-06-24T02:45:05.281Z,13.50
2018-06-24T02:47:33.869Z,13.50
2018-06-24T02:50:01.965Z,13.50
2018-06-24T02:52:29.929Z,13.50
2018-06-24T02:54:58.493Z,13.50
2018-06-24T02:57:27.068Z,13.50
2018-06-24T02:59:55.170Z,13.20
2018-06-24T03:02:24.014Z,13.10
2018-06-24T03:04:51.807Z,13.20
2018-06-24T03:07:19.753Z,13.20
2018-06-24T03:09:47.750Z,13.20
2018-06-24T03:12:17.046Z,13.20
2018-06-24T03:14:45.763Z,13.20
2018-06-24T03:17:14.532Z,13.30
2018-06-24T03:19:42.747Z,13.40
2018-06-24T03:22:10.636Z,13.30
2018-06-24T03:24:39.476Z,13.30
2018-06-24T03:27:07.706Z,13.30
2018-06-24T03:29:35.827Z,13.30
2018-06-24T03:32:04.005Z,13.20
2018-06-24T03:34:31.677Z,13.20
2018-06-24T03:37:00.223Z,13.10
2018-06-24T03:39:27.754Z,13.10
2018-06-24T03:41:55.625Z,13.10
2018-06-24T03:44:24.044Z,13.10
2018-06-24T03:46:53.064Z,13.10
2018-06-24T03:49:22.055Z,13.20
2018-06-24T03:51:49.563Z,13.20
2018-06-24T03:54:17.594Z,13.20
2018-06-24T03:56:46.124Z,13.30
2018-06-24T03:59:14.876Z,13.30
2018-06-24T04:01:43.315Z,13.30
2018-06-24T04:04:10.809Z,13.30
2018-06-24T04:06:39.527Z,13.20
2018-06-24T04:09:08.347Z,13.20
2018-06-24T04:11:36.610Z,13.30
2018-06-24T04:14:05.429Z,13.20
2018-06-24T04:16:34.121Z,13.20
2018-06-24T04:19:02.215Z,13.20
2018-06-24T04:21:30.382Z,13.10
2018-06-24T04:23:58.738Z,13.10
2018-06-24T04:26:26.313Z,13.10
2018-06-24T04:28:54.983Z,13.00
2018-06-24T04:31:23.268Z,13.10
2018-06-24T04:33:51.455Z,13.10
2018-06-24T04:36:20.185Z,13.10
2018-06-24T04:38:48.954Z,13.10
2018-06-24T04:41:17.574Z,13.10
2018-06-24T04:43:45.684Z,13.10
2018-06-24T04:46:13.210Z,13.20
2018-06-24T04:48:41.697Z,13.20
2018-06-24T04:51:10.161Z,13.20
2018-06-24T04:53:38.209Z,13.10
2018-06-24T04:56:06.844Z,13.20
2018-06-24T04:58:34.332Z,13.10
2018-06-24T05:01:01.897Z,13.10
2018-06-24T05:03:30.141Z,13.10
2018-06-24T05:05:58.338Z,13.20
2018-06-24T05:08:26.409Z,13.20
2018-06-24T05:10:55.058Z,13.20
2018-06-24T05:13:22.579Z,13.30
2018-06-24T05:15:50.447Z,13.40
2018-06-24T05:18:18.500Z,13.40
2018-06-24T05:20:47.747Z,13.40
2018-06-24T05:23:15.545Z,13.40
2018-06-24T05:25:43.663Z,13.40
2018-06-24T05:28:11.330Z,13.40
2018-06-24T05:30:39.333Z,13.50
2018-06-24T05:35:35.070Z,13.60
2018-06-24T05:38:03.316Z,13.60
2018-06-24T05:40:32.213Z,13.60
2018-06-24T05:43:00.316Z,13.70
2018-06-24T05:47:56.742Z,13.80
2018-06-24T05:50:24.785Z,13.90
2018-06-24T05:52:52.399Z,13.90
2018-06-24T05:57:47.816Z,13.90
2018-06-24T06:00:15.464Z,14.00
2018-06-24T06:02:42.448Z,14.00
2018-06-24T06:05:09.576Z,14.10
2018-06-24T06:07:36.588Z,14.10
2018-06-24T06:10:03.883Z,13.90
2018-06-24T06:12:30.789Z,13.90
2018-06-24T06:14:58.164Z,13.90
2018-06-24T06:19:51.924Z,14.20
2018-06-24T06:22:18.830Z,14.30
2018-06-24T06:24:45.784Z,14.30
2018-06-24T06:27:13.291Z,14.20
2018-06-24T06:29:40.237Z,14.30
2018-06-24T06:32:09.184Z,14.40
2018-06-24T06:34:36.193Z,14.70
2018-06-24T06:37:03.132Z,14.90
2018-06-24T06:39:30.114Z,14.90
2018-06-24T06:41:57.076Z,15.00
2018-06-24T06:44:23.990Z,15.20
2018-06-24T06:46:50.966Z,15.30
2018-06-24T06:49:17.892Z,15.30
2018-06-24T06:51:44.864Z,15.40
2018-06-24T06:54:12.500Z,15.20
2018-06-24T06:56:39.409Z,15.10
2018-06-24T06:59:06.671Z,15.20
2018-06-24T07:01:33.565Z,15.20
2018-06-24T07:04:00.486Z,15.30
2018-06-24T07:06:27.485Z,15.30
2018-06-24T07:08:54.402Z,15.30
2018-06-24T07:11:22.022Z,15.50
2018-06-24T07:13:48.996Z,15.50
2018-06-24T07:16:16.085Z,15.50
2018-06-24T07:18:43.852Z,15.50
2018-06-24T07:21:10.833Z,15.60
2018-06-24T07:23:37.750Z,15.80
2018-06-24T07:26:04.693Z,15.90
2018-06-24T07:28:31.599Z,15.90
2018-06-24T07:30:58.573Z,16.00
2018-06-24T07:33:26.058Z,16.00
2018-06-24T07:35:53.016Z,16.10
2018-06-24T07:38:20.149Z,16.30
2018-06-24T07:40:47.557Z,16.40
2018-06-24T07:43:14.501Z,16.30
2018-06-24T07:45:41.407Z,16.30
2018-06-24T07:48:08.312Z,16.40
2018-06-24T07:50:35.317Z,16.60
2018-06-24T07:53:02.265Z,16.50
2018-06-24T07:55:30.063Z,16.60
2018-06-24T07:57:57.785Z,16.80
2018-06-24T08:00:24.735Z,16.90
2018-06-24T08:02:51.684Z,16.90
2018-06-24T08:05:18.688Z,17.00
2018-06-24T08:07:45.768Z,17.00
2018-06-24T08:10:13.672Z,17.30
2018-06-24T08:12:40.656Z,17.40
2018-06-24T08:15:07.585Z,17.50
2018-06-24T08:17:34.488Z,17.90
2018-06-24T08:20:01.459Z,18.30
2018-06-24T08:22:28.410Z,18.50
2018-06-24T08:24:55.382Z,18.70
2018-06-24T08:27:22.813Z,18.70
2018-06-24T08:29:49.747Z,18.70
2018-06-24T08:34:43.512Z,18.70
2018-06-24T08:37:10.467Z,18.20
2018-06-24T08:39:37.475Z,18.00
2018-06-24T08:42:04.452Z,17.90
2018-06-24T08:44:31.484Z,18.00
2018-06-24T08:46:59.095Z,18.10
2018-06-24T08:49:26.376Z,18.20
2018-06-24T08:51:53.371Z,18.40
2018-06-24T08:54:20.396Z,18.50
2018-06-24T08:56:47.360Z,18.40
2018-06-24T08:59:14.305Z,18.40
2018-06-24T09:01:41.871Z,18.30
2018-06-24T09:04:08.797Z,18.20
2018-06-24T09:06:35.818Z,18.30
2018-06-24T09:09:03.863Z,18.40
2018-06-24T09:11:30.824Z,18.30
2018-06-24T09:13:57.740Z,18.40
2018-06-24T09:16:24.699Z,18.40
2018-06-24T09:18:51.621Z,18.40
2018-06-24T09:21:18.644Z,18.20
2018-06-24T09:23:45.581Z,18.00
2018-06-24T09:26:12.601Z,17.90
2018-06-24T09:28:40.194Z,18.00
2018-06-24T09:31:07.225Z,18.10
2018-06-24T09:33:34.143Z,18.30
2018-06-24T09:36:01.585Z,18.40
2018-06-24T09:38:28.532Z,18.30
2018-06-24T09:40:55.534Z,18.20
2018-06-24T09:43:22.449Z,18.00
2018-06-24T09:45:49.361Z,18.10
2018-06-24T09:48:16.252Z,18.00
2018-06-24T09:50:43.200Z,18.00
2018-06-24T09:53:10.235Z,18.10
2018-06-24T09:55:37.161Z,18.10
2018-06-24T09:58:04.941Z,18.10
2018-06-24T10:02:58.925Z,18.10
2018-06-24T10:05:26.451Z,18.10
2018-06-24T10:07:54.065Z,18.20
2018-06-24T10:10:21.628Z,18.40
2018-06-24T10:12:48.573Z,18.50
2018-06-24T10:15:16.131Z,18.50
2018-06-24T10:17:43.088Z,18.70
2018-06-24T10:20:10.013Z,18.70
2018-06-24T10:22:37.531Z,18.80
2018-06-24T10:25:05.036Z,18.80
2018-06-24T10:27:32.599Z,18.80
2018-06-24T10:30:00.079Z,18.80
2018-06-24T10:32:27.240Z,18.60
2018-06-24T10:34:54.203Z,18.50
2018-06-24T10:37:21.096Z,18.70
2018-06-24T10:39:48.039Z,18.60
2018-06-24T10:42:15.564Z,18.60
2018-06-24T10:44:43.511Z,18.80
2018-06-24T10:47:10.834Z,18.80
2018-06-24T10:49:38.507Z,19.00
2018-06-24T10:52:05.449Z,19.00
2018-06-24T10:54:32.418Z,19.00
2018-06-24T10:56:59.431Z,19.10
2018-06-24T10:59:26.362Z,19.30
2018-06-24T11:01:53.837Z,19.40
2018-06-24T11:04:21.416Z,19.50
2018-06-24T11:06:48.373Z,19.80
2018-06-24T11:09:15.327Z,19.90
2018-06-24T11:11:42.281Z,20.00
2018-06-24T11:14:09.212Z,19.80
2018-06-24T11:16:36.237Z,19.80
2018-06-24T11:19:03.107Z,19.90
2018-06-24T11:21:30.765Z,20.20
2018-06-24T11:23:57.871Z,20.40
2018-06-24T11:26:24.817Z,20.60
2018-06-24T11:28:51.748Z,20.80
2018-06-24T11:31:18.673Z,20.90
2018-06-24T11:33:45.648Z,21.00
2018-06-24T11:36:12.603Z,21.10
2018-06-24T11:41:06.897Z,20.90
2018-06-24T11:43:33.835Z,20.70
2018-06-24T11:46:01.384Z,20.70
2018-06-24T11:48:28.313Z,20.60
2018-06-24T11:50:55.220Z,20.50
2018-06-24T11:53:22.192Z,20.60
2018-06-24T11:55:49.165Z,20.40
2018-06-24T11:58:16.677Z,20.40
2018-06-24T12:00:43.684Z,20.30
2018-06-24T12:03:10.603Z,20.30
2018-06-24T12:05:37.523Z,20.40
2018-06-24T12:08:04.657Z,20.70
2018-06-24T12:10:31.661Z,21.10
2018-06-24T12:12:58.663Z,21.40
2018-06-24T12:15:25.709Z,21.60
2018-06-24T12:17:52.644Z,21.90
2018-06-24T12:20:19.583Z,21.90
2018-06-24T12:22:46.510Z,21.90
2018-06-24T12:25:13.497Z,21.90
2018-06-24T12:27:40.781Z,21.80
2018-06-24T12:30:08.047Z,21.70
2018-06-24T12:32:35.006Z,21.80
2018-06-24T12:35:01.996Z,21.90
2018-06-24T12:37:28.957Z,22.00
2018-06-24T12:39:55.903Z,22.00
2018-06-24T12:42:22.813Z,21.90
2018-06-24T12:44:49.765Z,21.80
2018-06-24T12:47:16.695Z,21.80
2018-06-24T12:49:43.647Z,21.80
2018-06-24T12:52:10.600Z,21.70
2018-06-24T12:54:38.069Z,21.70
2018-06-24T12:57:05.049Z,21.40
2018-06-24T12:59:32.183Z,21.50
2018-06-24T13:01:58.954Z,21.40
2018-06-24T13:04:25.883Z,21.40
2018-06-24T13:06:52.828Z,21.40
2018-06-24T13:11:46.648Z,21.50
2018-06-24T13:14:13.622Z,21.60
2018-06-24T13:16:40.602Z,21.60
2018-06-24T13:19:07.725Z,21.60
2018-06-24T13:21:35.679Z,21.60
2018-06-24T13:24:02.594Z,21.40
2018-06-24T13:26:29.531Z,21.30
2018-06-24T13:28:56.464Z,21.20
2018-06-24T13:31:23.515Z,21.10
2018-06-24T13:33:50.537Z,21.10
2018-06-24T13:36:18.112Z,21.00
2018-06-24T13:38:45.070Z,21.00
2018-06-24T13:41:12.784Z,20.80
2018-06-24T13:43:39.769Z,20.80
2018-06-24T13:46:06.736Z,20.80
2018-06-24T13:48:33.699Z,20.90
2018-06-24T13:51:00.665Z,20.90
2018-06-24T13:53:27.692Z,20.70
2018-06-24T13:55:54.604Z,20.70
2018-06-24T13:58:21.751Z,20.50
2018-06-24T14:00:49.419Z,20.50
2018-06-24T14:03:16.348Z,20.60
2018-06-24T14:05:43.289Z,20.60
2018-06-24T14:08:10.262Z,20.70
2018-06-24T14:10:37.219Z,20.70
2018-06-24T14:13:04.722Z,20.70
2018-06-24T14:15:31.657Z,20.70
2018-06-24T14:17:58.630Z,20.70
2018-06-24T14:20:25.568Z,20.70
2018-06-24T14:22:52.497Z,20.70
2018-06-24T14:25:19.452Z,20.80
2018-06-24T14:27:46.372Z,20.80
2018-06-24T14:30:13.331Z,20.70
2018-06-24T14:32:40.259Z,20.60
2018-06-24T14:35:07.228Z,20.50
2018-06-24T14:37:34.178Z,20.40
2018-06-24T14:40:01.111Z,20.50
2018-06-24T14:42:28.065Z,20.60
2018-06-24T14:47:21.911Z,20.60
2018-06-24T14:49:48.889Z,20.70
2018-06-24T14:52:15.937Z,20.70
2018-06-24T14:54:42.961Z,20.50
2018-06-24T14:57:09.917Z,20.40
2018-06-24T14:59:36.952Z,20.40
2018-06-24T15:02:03.906Z,20.20
2018-06-24T15:04:30.828Z,20.20
2018-06-24T15:06:58.212Z,20.30
2018-06-24T15:09:25.624Z,20.40
2018-06-24T15:11:52.770Z,20.40
2018-06-24T15:14:19.774Z,20.40
2018-06-24T15:16:46.775Z,20.50
2018-06-24T15:19:13.731Z,20.60
2018-06-24T15:21:40.770Z,20.60
2018-06-24T15:24:07.731Z,20.70
2018-06-24T15:26:34.710Z,20.70
2018-06-24T15:29:01.679Z,20.80
2018-06-24T15:31:28.741Z,20.90
2018-06-24T15:33:55.697Z,20.80
2018-06-24T15:36:22.633Z,20.80
2018-06-24T15:38:49.677Z,21.00
2018-06-24T15:41:16.708Z,20.90
2018-06-24T15:43:43.700Z,20.90
2018-06-24T15:46:10.669Z,20.90
2018-06-24T15:48:37.717Z,21.00
2018-06-24T15:51:04.677Z,20.90
2018-06-24T15:53:31.633Z,21.00
2018-06-24T15:55:58.650Z,20.90
2018-06-24T15:58:25.636Z,20.80
2018-06-24T16:00:52.572Z,20.80
2018-06-24T16:03:20.183Z,20.80
2018-06-24T16:05:47.388Z,20.80
2018-06-24T16:08:14.434Z,20.80
2018-06-24T16:10:41.374Z,20.80
2018-06-24T16:13:08.308Z,20.70
2018-06-24T16:15:35.749Z,20.80
2018-06-24T16:18:02.837Z,20.80
2018-06-24T16:20:29.845Z,20.70
2018-06-24T16:22:56.828Z,20.80
2018-06-24T16:25:23.859Z,20.90
2018-06-24T16:27:50.856Z,20.80
2018-06-24T16:30:17.813Z,20.80
2018-06-24T16:32:44.996Z,20.60
2018-06-24T16:35:11.930Z,20.40
2018-06-24T16:37:38.881Z,20.40
2018-06-24T16:40:05.853Z,20.40
2018-06-24T16:42:32.820Z,20.40
2018-06-24T16:44:59.742Z,20.20
2018-06-24T16:47:26.687Z,20.20
2018-06-24T16:49:53.659Z,20.20
2018-06-24T16:52:20.645Z,20.10
2018-06-24T16:54:47.997Z,20.10
2018-06-24T16:57:15.704Z,20.20
2018-06-24T16:59:42.712Z,20.20
2018-06-24T17:02:09.706Z,20.20
2018-06-24T17:04:36.657Z,20.20
2018-06-24T17:07:03.665Z,20.10
2018-06-24T17:09:30.628Z,20.20
2018-06-24T17:11:57.674Z,20.10
2018-06-24T17:14:24.687Z,20.10
2018-06-24T17:16:51.645Z,20.10
2018-06-24T17:19:18.592Z,20.10
2018-06-24T17:21:45.528Z,20.10
2018-06-24T17:24:12.691Z,20.00
2018-06-24T17:26:39.695Z,20.00
2018-06-24T17:29:06.720Z,20.10
2018-06-24T17:31:33.994Z,20.00
2018-06-24T17:34:01.895Z,19.80
2018-06-24T17:36:29.838Z,19.60
2018-06-24T17:38:56.757Z,19.70
2018-06-24T17:41:23.772Z,19.80
2018-06-24T17:43:50.739Z,19.70
2018-06-24T17:46:17.664Z,19.60
2018-06-24T17:48:44.612Z,19.70
2018-06-24T17:51:11.554Z,19.80
2018-06-24T17:53:38.500Z,19.70
2018-06-24T17:56:05.529Z,19.70
2018-06-24T17:58:32.452Z,19.70
2018-06-24T18:00:59.405Z,19.70
2018-06-24T18:03:26.368Z,19.60
2018-06-24T18:05:53.322Z,19.70
2018-06-24T18:08:20.306Z,19.60
2018-06-24T18:10:47.752Z,19.70
2018-06-24T18:13:14.762Z,19.70
2018-06-24T18:15:41.723Z,19.70
2018-06-24T18:18:08.692Z,19.60
2018-06-24T18:20:35.616Z,19.40
2018-06-24T18:23:02.569Z,19.60
2018-06-24T18:25:29.510Z,19.50
2018-06-24T18:27:56.549Z,19.40
2018-06-24T18:30:23.589Z,19.40
2018-06-24T18:32:52.268Z,19.30
2018-06-24T18:35:19.219Z,19.20
2018-06-24T18:37:46.189Z,19.00
2018-06-24T18:40:13.297Z,19.00
2018-06-24T18:42:41.010Z,19.00
2018-06-24T18:45:08.081Z,19.10
2018-06-24T18:47:35.032Z,19.00
2018-06-24T18:50:02.329Z,18.80
2018-06-24T18:52:29.358Z,18.70
2018-06-24T18:54:56.476Z,18.70
2018-06-24T18:57:23.684Z,18.60
2018-06-24T18:59:50.705Z,18.50
2018-06-24T19:02:17.887Z,18.40
2018-06-24T19:04:44.876Z,18.20
2018-06-24T19:07:14.345Z,18.10
2018-06-24T19:09:41.340Z,18.10
2018-06-24T19:12:08.467Z,17.80
2018-06-24T19:14:35.519Z,17.60
2018-06-24T19:17:02.573Z,17.60
2018-06-24T19:19:29.848Z,17.50
2018-06-24T19:21:57.017Z,17.60
2018-06-24T19:24:24.156Z,17.60
2018-06-24T19:26:51.240Z,17.50
2018-06-24T19:29:18.409Z,17.40
2018-06-24T19:31:45.613Z,17.20
2018-06-24T19:34:12.755Z,17.20
2018-06-24T19:36:40.036Z,17.10
2018-06-24T19:39:08.205Z,17.00
2018-06-24T19:41:35.286Z,16.90
2018-06-24T19:44:02.485Z,17.00
2018-06-24T19:46:29.589Z,17.10
2018-06-24T19:48:56.720Z,17.00
2018-06-24T20:01:09.498Z,16.90
2018-06-24T20:03:36.576Z,16.50
2018-06-24T20:06:03.582Z,16.50
2018-06-24T20:08:30.656Z,16.50
2018-06-24T20:10:57.639Z,16.50
2018-06-24T20:13:24.686Z,16.40
2018-06-24T20:15:51.678Z,16.40
2018-06-24T20:18:19.351Z,16.40
2018-06-24T20:20:46.390Z,16.40
2018-06-24T20:23:13.589Z,16.40
2018-06-24T20:25:40.544Z,16.40
2018-06-24T20:28:07.523Z,16.40
2018-06-24T20:30:34.528Z,16.30
2018-06-24T20:33:02.067Z,16.30
2018-06-24T20:35:29.053Z,16.30
2018-06-24T20:37:56.010Z,16.20
2018-06-24T20:40:22.966Z,16.30
2018-06-24T20:42:49.950Z,16.30
2018-06-24T20:45:17.511Z,16.20
2018-06-24T20:47:44.470Z,16.20
2018-06-24T20:50:11.491Z,16.20
2018-06-24T20:52:38.443Z,16.10
2018-06-24T20:55:06.111Z,16.00
2018-06-24T20:57:33.374Z,16.10
2018-06-24T21:00:00.311Z,16.10
2018-06-24T21:02:27.256Z,16.00
2018-06-24T21:04:54.163Z,16.00
2018-06-24T21:07:21.095Z,16.00
2018-06-24T21:09:48.000Z,16.00
2018-06-24T21:12:14.937Z,16.00
2018-06-24T21:14:42.678Z,16.00
2018-06-24T21:17:09.609Z,16.10
2018-06-24T21:19:36.561Z,16.00
2018-06-24T21:22:03.499Z,16.00
2018-06-24T21:24:36.790Z,16.00
2018-06-24T21:27:04.529Z,16.10
2018-06-24T21:29:31.444Z,16.10
2018-06-24T21:31:58.700Z,15.80
2018-06-24T21:34:25.630Z,15.70
2018-06-24T21:36:53.061Z,15.60
2018-06-24T21:39:20.012Z,15.60
2018-06-24T21:41:47.220Z,15.70
2018-06-24T21:44:14.867Z,15.70
2018-06-24T21:46:41.792Z,15.70
2018-06-24T21:49:08.752Z,15.70
2018-06-24T21:51:36.477Z,15.70
2018-06-24T21:54:04.050Z,15.80
2018-06-24T21:56:30.960Z,15.70
2018-06-24T21:58:57.886Z,15.60
2018-06-24T22:01:24.833Z,15.40
2018-06-24T22:03:51.776Z,15.30
2018-06-24T22:06:18.759Z,15.20
2018-06-24T22:08:45.751Z,15.30
2018-06-24T22:11:12.772Z,15.20
2018-06-24T22:13:39.739Z,15.20
2018-06-24T22:16:06.669Z,15.10
2018-06-24T22:18:33.613Z,15.20
2018-06-24T22:21:00.576Z,15.20
2018-06-24T22:23:27.509Z,15.10
2018-06-24T22:25:54.489Z,15.20
2018-06-24T22:28:21.544Z,15.00
2018-06-24T22:30:48.540Z,14.90
2018-06-24T22:33:15.481Z,14.90
2018-06-24T22:35:42.692Z,14.90
2018-06-24T22:38:09.605Z,14.90
2018-06-24T22:40:36.543Z,14.90
2018-06-24T22:43:04.672Z,14.90
2018-06-24T22:45:31.633Z,14.80
2018-06-24T22:48:00.218Z,14.70
2018-06-24T22:50:27.369Z,14.70
2018-06-24T22:52:54.359Z,14.70
2018-06-24T22:55:21.279Z,14.60
2018-06-24T22:57:48.266Z,14.60
2018-06-24T23:00:15.888Z,14.70
2018-06-24T23:02:43.376Z,14.70
2018-06-24T23:05:10.912Z,14.70
2018-06-24T23:07:39.021Z,14.70
2018-06-24T23:10:05.927Z,14.70
2018-06-24T23:12:32.959Z,14.60
2018-06-24T23:14:59.909Z,14.70
2018-06-24T23:17:26.820Z,14.80
2018-06-24T23:19:53.920Z,14.80
2018-06-24T23:22:21.313Z,14.80
2018-06-24T23:24:48.265Z,14.90
2018-06-24T23:27:15.200Z,14.90
2018-06-24T23:29:42.155Z,14.80
2018-06-24T23:32:09.083Z,14.60
2018-06-24T23:34:36.004Z,14.70
2018-06-24T23:37:03.492Z,14.80
2018-06-24T23:39:30.812Z,14.70
2018-06-24T23:41:57.750Z,14.70
2018-06-24T23:44:24.876Z,14.70
2018-06-24T23:46:52.040Z,14.60
2018-06-24T23:49:18.946Z,14.70
2018-06-24T23:51:45.852Z,14.70
2018-06-24T23:54:12.804Z,14.70
2018-06-24T23:56:39.712Z,14.60
2018-06-24T23:59:06.641Z,14.60
